createdAt,value
2019-02-20T00:00:15.820Z,79.27
2019-02-20T00:01:15.793Z,78.65
2019-02-20T00:02:15.784Z,79.52
2019-02-20T00:03:15.765Z,80.35
2019-02-20T00:04:15.798Z,80.04
2019-02-20T00:05:15.747Z,80.11
2019-02-20T00:06:15.734Z,80.15
2019-02-20T00:07:15.724Z,80.56
2019-02-20T00:08:15.767Z,81.15
2019-02-20T00:09:15.699Z,80.66
2019-02-20T00:10:15.688Z,80.25
2019-02-20T00:11:15.688Z,79.94
2019-02-20T00:12:15.665Z,80.46
2019-02-20T00:13:15.704Z,80.15
2019-02-20T00:14:15.687Z,80.46
2019-02-20T00:15:15.634Z,80.98
2019-02-20T00:16:15.662Z,80.66
2019-02-20T00:17:15.654Z,80.77
2019-02-20T00:18:15.600Z,81.08
2019-02-20T00:19:15.591Z,81.91
2019-02-20T00:20:15.576Z,81.95
2019-02-20T00:21:15.567Z,82.05
2019-02-20T00:22:15.557Z,83.37
2019-02-20T00:23:15.613Z,82.43
2019-02-20T00:24:15.538Z,82.53
2019-02-20T00:25:15.527Z,82.32
2019-02-20T00:26:15.510Z,81.70
2019-02-20T00:27:15.503Z,82.64
2019-02-20T00:28:15.532Z,81.98
2019-02-20T00:29:15.477Z,81.35
2019-02-20T00:30:15.482Z,81.98
2019-02-20T00:31:15.457Z,81.77
2019-02-20T00:32:15.445Z,81.39
2019-02-20T00:33:15.440Z,82.12
2019-02-20T00:34:15.485Z,80.42
2019-02-20T00:35:15.424Z,79.83
2019-02-20T00:36:15.405Z,80.25
2019-02-20T00:37:15.399Z,79.94
2019-02-20T00:38:15.422Z,80.15
2019-02-20T00:39:15.404Z,81.29
2019-02-20T00:40:15.401Z,81.81
2019-02-20T00:41:15.348Z,81.43
2019-02-20T00:42:15.335Z,80.39
2019-02-20T00:43:15.326Z,81.32
2019-02-20T00:44:15.355Z,81.53
2019-02-20T00:45:15.307Z,81.22
2019-02-20T00:46:15.294Z,82.20
2019-02-20T00:47:15.281Z,81.15
2019-02-20T00:48:15.339Z,82.51
2019-02-20T00:49:15.258Z,83.65
2019-02-20T00:50:15.247Z,83.54
2019-02-20T00:51:15.239Z,83.51
2019-02-20T00:52:15.226Z,83.51
2019-02-20T00:53:15.214Z,83.30
2019-02-20T00:54:15.243Z,83.09
2019-02-20T00:55:15.195Z,82.20
2019-02-20T00:56:15.181Z,82.92
2019-02-20T00:57:15.209Z,84.06
2019-02-20T00:58:15.156Z,83.92
2019-02-20T00:59:16.870Z,84.34
2019-02-20T01:00:15.134Z,84.34
2019-02-20T01:01:15.124Z,84.13
2019-02-20T01:02:15.117Z,84.03
2019-02-20T01:03:15.149Z,84.23
2019-02-20T01:04:15.093Z,83.51
2019-02-20T01:05:15.088Z,84.86
2019-02-20T01:06:15.069Z,84.13
2019-02-20T01:07:15.062Z,84.13
2019-02-20T01:08:15.124Z,84.65
2019-02-20T01:09:15.036Z,84.72
2019-02-20T01:10:15.027Z,84.72
2019-02-20T01:11:15.031Z,83.99
2019-02-20T01:12:15.002Z,83.74
2019-02-20T01:13:14.995Z,84.05
2019-02-20T01:14:15.021Z,82.95
2019-02-20T01:15:14.978Z,83.47
2019-02-20T01:16:14.970Z,83.47
2019-02-20T01:17:14.992Z,82.84
2019-02-20T01:18:14.948Z,83.05
2019-02-20T01:19:14.938Z,84.13
2019-02-20T01:20:14.940Z,84.13
2019-02-20T01:21:14.906Z,83.92
2019-02-20T01:22:14.936Z,84.61
2019-02-20T01:23:14.880Z,84.03
2019-02-20T01:24:14.873Z,84.09
2019-02-20T01:25:14.871Z,84.09
2019-02-20T01:26:14.848Z,83.78
2019-02-20T01:27:14.838Z,84.03
2019-02-20T01:28:14.868Z,83.99
2019-02-20T01:29:14.816Z,83.99
2019-02-20T01:30:14.808Z,84.09
2019-02-20T01:31:14.794Z,83.47
2019-02-20T01:32:14.787Z,84.09
2019-02-20T01:33:16.554Z,83.68
2019-02-20T01:34:14.815Z,83.68
2019-02-20T01:35:14.753Z,83.95
2019-02-20T01:36:14.742Z,83.43
2019-02-20T01:37:14.727Z,83.12
2019-02-20T01:38:14.718Z,82.95
2019-02-20T01:39:14.704Z,82.91
2019-02-20T01:40:14.737Z,82.95
2019-02-20T01:41:14.691Z,83.47
2019-02-20T01:42:14.672Z,82.95
2019-02-20T01:43:14.705Z,83.37
2019-02-20T01:44:14.656Z,83.47
2019-02-20T01:45:14.638Z,84.09
2019-02-20T01:46:14.633Z,83.58
2019-02-20T01:47:14.634Z,83.47
2019-02-20T01:48:14.610Z,83.09
2019-02-20T01:49:14.636Z,83.72
2019-02-20T01:50:14.592Z,84.03
2019-02-20T01:51:14.571Z,84.03
2019-02-20T01:52:14.565Z,83.72
2019-02-20T01:53:14.552Z,84.13
2019-02-20T01:54:14.582Z,84.03
2019-02-20T01:55:14.527Z,83.61
2019-02-20T01:56:14.518Z,84.03
2019-02-20T01:57:14.561Z,84.03
2019-02-20T01:58:14.495Z,83.78
2019-02-20T01:59:14.499Z,83.40
2019-02-20T02:00:14.472Z,83.72
2019-02-20T02:01:14.462Z,83.82
2019-02-20T02:02:14.450Z,83.72
2019-02-20T02:03:14.483Z,83.40
2019-02-20T02:04:14.475Z,83.61
2019-02-20T02:05:15.795Z,84.13
2019-02-20T02:06:14.448Z,84.23
2019-02-20T02:07:14.401Z,82.99
2019-02-20T02:08:14.387Z,82.99
2019-02-20T02:09:14.382Z,83.05
2019-02-20T02:10:14.363Z,83.09
2019-02-20T02:11:14.376Z,83.72
2019-02-20T02:12:14.383Z,83.51
2019-02-20T02:13:14.331Z,83.61
2019-02-20T02:14:14.317Z,83.72
2019-02-20T02:15:20.579Z,83.44
2019-02-20T02:16:15.294Z,83.54
2019-02-20T02:17:14.285Z,83.54
2019-02-20T02:18:14.317Z,83.96
2019-02-20T02:19:14.265Z,84.17
2019-02-20T02:20:14.251Z,83.65
2019-02-20T02:21:14.241Z,83.86
2019-02-20T02:22:14.270Z,83.96
2019-02-20T02:23:19.902Z,83.54
2019-02-20T02:24:15.250Z,83.44
2019-02-20T02:25:14.196Z,83.75
2019-02-20T02:26:14.186Z,82.92
2019-02-20T02:27:14.221Z,83.34
2019-02-20T02:28:14.161Z,83.13
2019-02-20T02:29:14.197Z,83.44
2019-02-20T02:30:14.142Z,83.34
2019-02-20T02:31:14.136Z,83.13
2019-02-20T02:32:14.119Z,83.54
2019-02-20T02:33:14.112Z,83.80
2019-02-20T02:34:14.096Z,84.90
2019-02-20T02:35:14.131Z,85.73
2019-02-20T02:36:14.082Z,85.21
2019-02-20T02:37:14.063Z,85.38
2019-02-20T02:38:14.053Z,83.51
2019-02-20T02:39:14.090Z,83.40
2019-02-20T02:40:14.061Z,83.72
2019-02-20T02:41:14.023Z,83.96
2019-02-20T02:42:14.016Z,84.27
2019-02-20T02:43:13.997Z,84.06
2019-02-20T02:44:13.988Z,84.38
2019-02-20T02:45:14.015Z,84.80
2019-02-20T02:46:13.987Z,84.90
2019-02-20T02:47:13.952Z,85.46
2019-02-20T02:48:13.942Z,85.35
2019-02-20T02:49:14.035Z,85.35
2019-02-20T02:50:13.936Z,85.67
2019-02-20T02:51:13.913Z,85.83
2019-02-20T02:52:13.940Z,85.25
2019-02-20T02:53:13.885Z,85.11
2019-02-20T02:54:13.898Z,85.98
2019-02-20T02:55:13.868Z,85.46
2019-02-20T02:56:13.861Z,85.04
2019-02-20T02:57:13.843Z,84.63
2019-02-20T02:58:13.887Z,84.83
2019-02-20T02:59:13.844Z,85.35
2019-02-20T03:00:13.839Z,85.11
2019-02-20T03:01:13.804Z,84.52
2019-02-20T03:02:13.787Z,84.90
2019-02-20T03:03:13.778Z,85.31
2019-02-20T03:04:13.813Z,84.90
2019-02-20T03:05:13.756Z,84.48
2019-02-20T03:06:13.750Z,85.49
2019-02-20T03:07:13.735Z,84.23
2019-02-20T03:08:13.724Z,84.13
2019-02-20T03:09:13.715Z,84.23
2019-02-20T03:10:13.776Z,84.13
2019-02-20T03:11:13.691Z,83.72
2019-02-20T03:12:13.679Z,83.72
2019-02-20T03:13:13.670Z,84.13
2019-02-20T03:14:13.699Z,82.89
2019-02-20T03:15:13.670Z,83.09
2019-02-20T03:16:13.636Z,83.40
2019-02-20T03:17:13.622Z,83.92
2019-02-20T03:18:13.620Z,83.47
2019-02-20T03:19:13.601Z,83.37
2019-02-20T03:20:13.636Z,83.47
2019-02-20T03:21:13.580Z,83.40
2019-02-20T03:22:13.571Z,82.84
2019-02-20T03:23:13.561Z,83.37
2019-02-20T03:24:13.558Z,83.37
2019-02-20T03:25:13.533Z,83.37
2019-02-20T03:26:13.570Z,83.16
2019-02-20T03:27:13.512Z,83.09
2019-02-20T03:28:13.547Z,83.47
2019-02-20T03:29:13.488Z,82.60
2019-02-20T03:30:13.482Z,83.16
2019-02-20T03:31:13.520Z,83.16
2019-02-20T03:32:13.460Z,83.22
2019-02-20T03:33:13.447Z,83.05
2019-02-20T03:34:13.485Z,83.22
2019-02-20T03:35:13.430Z,82.50
2019-02-20T03:36:13.412Z,82.50
2019-02-20T03:37:13.406Z,81.98
2019-02-20T03:38:13.451Z,82.81
2019-02-20T03:39:13.381Z,82.50
2019-02-20T03:40:13.368Z,81.98
2019-02-20T03:41:13.363Z,82.08
2019-02-20T03:42:13.393Z,81.56
2019-02-20T03:43:13.338Z,82.18
2019-02-20T03:44:13.322Z,81.67
2019-02-20T03:45:13.318Z,81.67
2019-02-20T03:46:13.301Z,81.98
2019-02-20T03:47:13.336Z,82.08
2019-02-20T03:48:13.281Z,81.56
2019-02-20T03:49:13.270Z,81.98
2019-02-20T03:50:13.300Z,82.18
2019-02-20T03:51:13.250Z,82.56
2019-02-20T03:52:13.247Z,81.84
2019-02-20T03:53:13.226Z,81.98
2019-02-20T03:54:13.223Z,81.87
2019-02-20T03:55:13.214Z,81.87
2019-02-20T03:56:13.231Z,81.46
2019-02-20T03:57:13.192Z,82.04
2019-02-20T03:58:13.194Z,81.77
2019-02-20T03:59:13.164Z,81.67
2019-02-20T04:00:13.159Z,81.98
2019-02-20T04:01:13.208Z,82.18
2019-02-20T04:02:13.125Z,82.91
2019-02-20T04:03:13.116Z,83.01
2019-02-20T04:04:13.108Z,82.60
2019-02-20T04:05:13.095Z,81.98
2019-02-20T04:06:13.084Z,83.01
2019-02-20T04:07:13.126Z,82.50
2019-02-20T04:08:13.108Z,83.01
2019-02-20T04:09:13.051Z,83.12
2019-02-20T04:10:13.045Z,83.12
2019-02-20T04:11:13.030Z,83.01
2019-02-20T04:12:13.042Z,83.01
2019-02-20T04:13:13.055Z,83.74
2019-02-20T04:14:12.999Z,83.22
2019-02-20T04:15:12.998Z,83.43
2019-02-20T04:16:13.016Z,83.12
2019-02-20T04:17:12.963Z,83.12
2019-02-20T04:18:12.953Z,82.70
2019-02-20T04:19:12.944Z,82.39
2019-02-20T04:20:12.932Z,82.25
2019-02-20T04:21:12.923Z,83.12
2019-02-20T04:22:12.954Z,82.81
2019-02-20T04:23:12.905Z,82.98
2019-02-20T04:24:12.890Z,82.87
2019-02-20T04:25:12.920Z,82.04
2019-02-20T04:26:12.866Z,82.04
2019-02-20T04:27:12.856Z,82.25
2019-02-20T04:28:12.848Z,82.04
2019-02-20T04:29:12.832Z,81.87
2019-02-20T04:30:12.822Z,82.18
2019-02-20T04:31:12.854Z,82.18
2019-02-20T04:32:12.806Z,82.29
2019-02-20T04:33:12.792Z,83.08
2019-02-20T04:34:12.776Z,82.81
2019-02-20T04:35:12.770Z,83.53
2019-02-20T04:36:12.802Z,83.43
2019-02-20T04:37:12.764Z,83.18
2019-02-20T04:38:12.750Z,82.87
2019-02-20T04:39:12.855Z,83.53
2019-02-20T04:40:12.907Z,82.77
2019-02-20T04:41:12.710Z,82.77
2019-02-20T04:42:12.693Z,83.01
2019-02-20T04:43:12.680Z,82.98
2019-02-20T04:44:12.673Z,82.87
2019-02-20T04:45:12.657Z,82.98
2019-02-20T04:46:12.717Z,82.77
2019-02-20T04:47:12.643Z,83.18
2019-02-20T04:48:12.674Z,83.08
2019-02-20T04:49:12.613Z,82.98
2019-02-20T04:50:12.608Z,82.94
2019-02-20T04:51:12.598Z,82.53
2019-02-20T04:52:12.675Z,82.63
2019-02-20T04:53:12.573Z,82.73
2019-02-20T04:54:13.740Z,82.21
2019-02-20T04:55:12.553Z,82.21
2019-02-20T04:56:12.548Z,82.01
2019-02-20T04:57:12.530Z,82.46
2019-02-20T04:58:12.569Z,82.98
2019-02-20T04:59:12.507Z,83.04
2019-02-20T05:00:12.492Z,82.87
2019-02-20T05:01:12.487Z,82.73
2019-02-20T05:02:12.471Z,82.98
2019-02-20T05:03:12.462Z,82.94
2019-02-20T05:04:12.491Z,82.63
2019-02-20T05:05:12.453Z,82.94
2019-02-20T05:06:12.438Z,82.94
2019-02-20T05:07:12.424Z,81.90
2019-02-20T05:08:12.418Z,82.11
2019-02-20T05:09:12.444Z,82.94
2019-02-20T05:10:12.428Z,81.90
2019-02-20T05:11:12.382Z,82.21
2019-02-20T05:12:12.402Z,82.67
2019-02-20T05:13:12.351Z,83.46
2019-02-20T05:14:12.342Z,82.94
2019-02-20T05:15:12.389Z,82.94
2019-02-20T05:16:12.318Z,82.21
2019-02-20T05:17:12.351Z,83.04
2019-02-20T05:18:12.299Z,82.01
2019-02-20T05:19:12.295Z,82.01
2019-02-20T05:20:12.304Z,82.39
2019-02-20T05:21:12.315Z,82.01
2019-02-20T05:22:12.252Z,83.15
2019-02-20T05:23:12.262Z,82.90
2019-02-20T05:24:12.240Z,82.07
2019-02-20T05:25:12.224Z,82.07
2019-02-20T05:26:12.208Z,81.66
2019-02-20T05:27:12.240Z,83.01
2019-02-20T05:28:12.197Z,81.87
2019-02-20T05:29:12.218Z,81.87
2019-02-20T05:30:12.169Z,81.87
2019-02-20T05:31:12.209Z,81.24
2019-02-20T05:32:12.142Z,81.87
2019-02-20T05:33:12.132Z,81.45
2019-02-20T05:34:12.128Z,82.39
2019-02-20T05:35:12.108Z,82.28
2019-02-20T05:36:12.101Z,82.49
2019-02-20T05:37:12.132Z,82.39
2019-02-20T05:38:12.077Z,81.70
2019-02-20T05:39:12.068Z,82.80
2019-02-20T05:40:12.067Z,82.18
2019-02-20T05:41:12.046Z,81.59
2019-02-20T05:42:12.032Z,82.21
2019-02-20T05:43:12.060Z,82.32
2019-02-20T05:44:12.053Z,82.94
2019-02-20T05:45:12.002Z,83.36
2019-02-20T05:46:11.991Z,82.70
2019-02-20T05:47:11.982Z,82.84
2019-02-20T05:48:11.969Z,82.84
2019-02-20T05:49:11.955Z,82.70
2019-02-20T05:50:11.982Z,83.04
2019-02-20T05:51:11.932Z,83.04
2019-02-20T05:52:11.921Z,81.90
2019-02-20T05:53:11.958Z,83.04
2019-02-20T05:54:11.940Z,83.15
2019-02-20T05:55:11.936Z,82.67
2019-02-20T05:56:11.876Z,83.25
2019-02-20T05:57:11.865Z,83.25
2019-02-20T05:58:11.901Z,82.73
2019-02-20T05:59:11.893Z,82.98
2019-02-20T06:00:11.876Z,83.56
2019-02-20T06:01:11.831Z,83.08
2019-02-20T06:02:11.828Z,83.39
2019-02-20T06:03:11.820Z,83.39
2019-02-20T06:04:11.793Z,83.29
2019-02-20T06:05:11.826Z,83.12
2019-02-20T06:06:11.772Z,83.18
2019-02-20T06:07:11.809Z,83.22
2019-02-20T06:08:11.795Z,84.05
2019-02-20T06:09:11.933Z,83.74
2019-02-20T06:10:11.735Z,83.74
2019-02-20T06:11:14.773Z,84.05
2019-02-20T06:12:11.741Z,83.74
2019-02-20T06:13:11.694Z,83.43
2019-02-20T06:14:11.685Z,83.53
2019-02-20T06:15:11.721Z,84.27
2019-02-20T06:16:11.668Z,83.95
2019-02-20T06:17:11.659Z,84.33
2019-02-20T06:18:11.682Z,83.81
2019-02-20T06:19:11.627Z,83.81
2019-02-20T06:20:11.627Z,83.29
2019-02-20T06:21:11.655Z,83.18
2019-02-20T06:22:11.604Z,83.29
2019-02-20T06:23:11.715Z,83.18
2019-02-20T06:24:11.586Z,83.50
2019-02-20T06:25:11.666Z,82.81
2019-02-20T06:26:11.596Z,83.43
2019-02-20T06:27:11.545Z,84.05
2019-02-20T06:28:11.537Z,85.78
2019-02-20T06:29:11.517Z,84.01
2019-02-20T06:30:11.566Z,83.60
2019-02-20T06:31:11.542Z,83.87
2019-02-20T06:32:11.504Z,83.46
2019-02-20T06:33:11.487Z,82.77
2019-02-20T06:34:11.858Z,82.73
2019-02-20T06:35:11.453Z,84.01
2019-02-20T06:36:11.447Z,84.33
2019-02-20T06:37:11.429Z,83.50
2019-02-20T06:38:11.778Z,82.98
2019-02-20T06:39:11.430Z,83.39
2019-02-20T06:40:11.443Z,83.60
2019-02-20T06:41:11.403Z,83.91
2019-02-20T06:42:11.377Z,83.29
2019-02-20T06:43:11.359Z,83.01
2019-02-20T06:44:11.397Z,83.84
2019-02-20T06:45:11.437Z,83.84
2019-02-20T06:46:11.395Z,84.05
2019-02-20T06:47:11.401Z,84.05
2019-02-20T06:48:11.315Z,83.95
2019-02-20T06:49:11.339Z,84.16
2019-02-20T06:50:11.294Z,84.27
2019-02-20T06:51:11.274Z,84.78
2019-02-20T06:52:11.310Z,85.10
2019-02-20T06:53:11.266Z,84.89
2019-02-20T06:54:11.251Z,84.05
2019-02-20T06:55:11.253Z,84.16
2019-02-20T06:56:11.224Z,83.95
2019-02-20T06:57:11.205Z,84.27
2019-02-20T06:58:11.278Z,84.68
2019-02-20T06:59:11.259Z,83.43
2019-02-20T07:00:11.228Z,84.53
2019-02-20T07:01:11.190Z,83.64
2019-02-20T07:02:11.159Z,83.50
2019-02-20T07:03:11.160Z,83.84
2019-02-20T07:04:11.129Z,83.91
2019-02-20T07:05:11.118Z,83.74
2019-02-20T07:06:11.200Z,84.43
2019-02-20T07:07:11.106Z,84.12
2019-02-20T07:08:11.158Z,84.01
2019-02-20T07:09:11.111Z,84.12
2019-02-20T07:10:11.101Z,83.60
2019-02-20T07:11:11.153Z,84.29
2019-02-20T07:12:11.156Z,83.60
2019-02-20T07:13:11.048Z,84.01
2019-02-20T07:14:11.065Z,82.94
2019-02-20T07:15:11.099Z,82.98
2019-02-20T07:16:11.037Z,83.18
2019-02-20T07:17:11.002Z,82.98
2019-02-20T07:18:10.986Z,84.01
2019-02-20T07:19:10.971Z,84.43
2019-02-20T07:20:11.018Z,84.12
2019-02-20T07:21:10.948Z,83.50
2019-02-20T07:22:10.933Z,84.01
2019-02-20T07:23:10.965Z,84.12
2019-02-20T07:24:10.933Z,84.01
2019-02-20T07:25:10.943Z,83.60
2019-02-20T07:26:10.890Z,83.39
2019-02-20T07:27:10.885Z,83.39
2019-02-20T07:28:10.876Z,83.91
2019-02-20T07:29:10.912Z,83.36
2019-02-20T07:30:10.842Z,83.87
2019-02-20T07:31:10.836Z,83.56
2019-02-20T07:32:10.828Z,82.84
2019-02-20T07:33:10.819Z,83.98
2019-02-20T07:34:10.877Z,83.18
2019-02-20T07:35:10.792Z,83.04
2019-02-20T07:36:10.787Z,82.87
2019-02-20T07:37:10.808Z,82.94
2019-02-20T07:38:10.762Z,83.36
2019-02-20T07:39:10.748Z,83.50
2019-02-20T07:40:10.789Z,83.36
2019-02-20T07:41:10.727Z,83.25
2019-02-20T07:42:10.719Z,82.70
2019-02-20T07:43:10.717Z,83.36
2019-02-20T07:44:10.690Z,83.22
2019-02-20T07:45:10.712Z,83.01
2019-02-20T07:46:10.713Z,83.01
2019-02-20T07:47:10.714Z,82.59
2019-02-20T07:48:10.654Z,81.56
2019-02-20T07:49:10.692Z,81.87
2019-02-20T07:50:10.742Z,82.14
2019-02-20T07:51:10.658Z,82.14
2019-02-20T07:52:10.631Z,81.51
2019-02-20T07:53:10.649Z,81.93
2019-02-20T07:54:10.777Z,81.82
2019-02-20T07:55:13.715Z,81.82
2019-02-20T07:56:10.756Z,81.51
2019-02-20T07:57:10.558Z,81.82
2019-02-20T07:58:10.540Z,81.79
2019-02-20T07:59:10.574Z,82.14
2019-02-20T08:00:10.596Z,81.48
2019-02-20T08:01:10.548Z,80.85
2019-02-20T08:02:10.499Z,81.06
2019-02-20T08:03:10.519Z,81.10
2019-02-20T08:04:10.563Z,81.62
2019-02-20T08:05:10.477Z,82.03
2019-02-20T08:06:10.526Z,81.93
2019-02-20T08:07:10.443Z,81.68
2019-02-20T08:08:10.447Z,81.06
2019-02-20T08:09:10.437Z,81.75
2019-02-20T08:10:10.421Z,81.75
2019-02-20T08:11:14.620Z,81.65
2019-02-20T08:12:10.457Z,81.34
2019-02-20T08:13:10.421Z,80.61
2019-02-20T08:14:10.506Z,80.40
2019-02-20T08:15:10.973Z,80.71
2019-02-20T08:16:10.375Z,81.30
2019-02-20T08:17:10.328Z,80.57
2019-02-20T08:18:10.515Z,79.13
2019-02-20T08:19:10.369Z,79.02
2019-02-20T08:20:10.302Z,79.95
2019-02-20T08:21:10.288Z,79.85
2019-02-20T08:22:10.293Z,80.05
2019-02-20T08:23:10.275Z,79.19
2019-02-20T08:24:10.362Z,79.71
2019-02-20T08:25:10.256Z,80.22
2019-02-20T08:26:10.253Z,79.16
2019-02-20T08:27:10.252Z,78.57
2019-02-20T08:28:10.347Z,78.02
2019-02-20T08:29:10.245Z,78.22
2019-02-20T08:30:10.257Z,78.02
2019-02-20T08:31:10.182Z,77.95
2019-02-20T08:32:10.218Z,79.05
2019-02-20T08:33:10.206Z,79.05
2019-02-20T08:34:10.181Z,78.43
2019-02-20T08:35:10.144Z,78.70
2019-02-20T08:36:10.379Z,78.02
2019-02-20T08:37:10.160Z,78.43
2019-02-20T08:38:10.103Z,79.26
2019-02-20T08:39:11.195Z,78.70
2019-02-20T08:40:10.089Z,78.67
2019-02-20T08:41:10.066Z,77.67
2019-02-20T08:42:10.094Z,77.22
2019-02-20T08:43:10.053Z,77.53
2019-02-20T08:44:10.036Z,77.33
2019-02-20T08:45:10.094Z,76.29
2019-02-20T08:46:10.027Z,77.64
2019-02-20T08:47:10.663Z,77.33
2019-02-20T08:48:10.127Z,77.12
2019-02-20T08:49:09.997Z,77.56
2019-02-20T08:50:10.117Z,78.19
2019-02-20T08:51:10.118Z,78.15
2019-02-20T08:52:10.007Z,76.91
2019-02-20T08:53:09.959Z,78.15
2019-02-20T08:54:10.360Z,77.53
2019-02-20T08:55:10.000Z,77.22
2019-02-20T08:56:10.393Z,77.53
2019-02-20T08:57:10.097Z,76.18
2019-02-20T08:58:09.964Z,76.60
2019-02-20T08:59:14.990Z,77.12
2019-02-20T09:00:09.878Z,76.91
2019-02-20T09:01:09.858Z,77.43
2019-02-20T09:02:09.864Z,77.70
2019-02-20T09:03:09.865Z,77.56
2019-02-20T09:04:09.929Z,76.67
2019-02-20T09:05:09.861Z,75.60
2019-02-20T09:06:09.819Z,76.01
2019-02-20T09:07:09.786Z,76.12
2019-02-20T09:08:09.790Z,77.25
2019-02-20T09:09:09.768Z,76.90
2019-02-20T09:10:09.767Z,75.98
2019-02-20T09:11:09.814Z,76.39
2019-02-20T09:12:09.730Z,77.01
2019-02-20T09:13:09.718Z,75.12
2019-02-20T09:14:10.226Z,74.71
2019-02-20T09:15:09.706Z,74.60
2019-02-20T09:16:09.757Z,75.12
2019-02-20T09:17:09.688Z,75.12
2019-02-20T09:18:09.964Z,74.29
2019-02-20T09:19:09.687Z,75.18
2019-02-20T09:20:09.679Z,75.09
2019-02-20T09:21:09.645Z,74.53
2019-02-20T09:22:09.702Z,73.91
2019-02-20T09:23:09.657Z,74.33
2019-02-20T09:24:09.810Z,73.98
2019-02-20T09:25:09.590Z,73.68
2019-02-20T09:26:09.615Z,73.78
2019-02-20T09:27:09.567Z,73.91
2019-02-20T09:28:09.569Z,74.29
2019-02-20T09:29:09.595Z,73.78
2019-02-20T09:30:09.530Z,73.05
2019-02-20T09:31:09.516Z,73.05
2019-02-20T09:32:09.555Z,73.05
2019-02-20T09:33:09.780Z,72.92
2019-02-20T09:34:09.491Z,73.23
2019-02-20T09:35:09.490Z,72.61
2019-02-20T09:36:09.542Z,72.92
2019-02-20T09:37:09.507Z,73.13
2019-02-20T09:38:10.518Z,73.13
2019-02-20T09:39:09.853Z,71.96
2019-02-20T09:40:09.497Z,72.68
2019-02-20T09:41:09.476Z,72.44
2019-02-20T09:42:09.393Z,72.99
2019-02-20T09:43:09.385Z,71.10
2019-02-20T09:44:09.421Z,70.90
2019-02-20T09:45:09.444Z,72.03
2019-02-20T09:46:09.354Z,72.41
2019-02-20T09:47:09.375Z,70.69
2019-02-20T09:48:09.434Z,70.79
2019-02-20T09:49:09.342Z,72.03
2019-02-20T09:50:09.369Z,71.41
2019-02-20T09:51:09.386Z,71.20
2019-02-20T09:52:09.312Z,70.76
2019-02-20T09:53:09.310Z,70.59
2019-02-20T09:54:09.265Z,70.35
2019-02-20T09:55:09.297Z,70.14
2019-02-20T09:56:09.242Z,70.76
2019-02-20T09:57:09.307Z,70.42
2019-02-20T09:58:09.367Z,70.94
2019-02-20T09:59:09.215Z,70.52
2019-02-20T10:00:09.358Z,70.01
2019-02-20T10:01:09.354Z,69.90
2019-02-20T10:02:09.210Z,69.46
2019-02-20T10:03:09.248Z,69.26
2019-02-20T10:04:09.275Z,69.15
2019-02-20T10:05:09.316Z,69.67
2019-02-20T10:06:09.155Z,69.43
2019-02-20T10:07:09.783Z,68.61
2019-02-20T10:08:09.545Z,69.19
2019-02-20T10:09:09.956Z,69.09
2019-02-20T10:10:09.174Z,68.78
2019-02-20T10:11:09.124Z,68.03
2019-02-20T10:12:09.100Z,67.49
2019-02-20T10:13:11.437Z,67.49
2019-02-20T10:14:09.033Z,67.18
2019-02-20T10:15:09.067Z,67.05
2019-02-20T10:16:09.023Z,66.50
2019-02-20T10:17:09.090Z,67.14
2019-02-20T10:18:09.004Z,65.99
2019-02-20T10:19:09.180Z,65.61
2019-02-20T10:20:08.973Z,65.81
2019-02-20T10:21:09.021Z,67.05
2019-02-20T10:22:08.958Z,66.84
2019-02-20T10:23:09.050Z,67.56
2019-02-20T10:24:08.974Z,66.53
2019-02-20T10:25:09.331Z,66.50
2019-02-20T10:26:08.990Z,66.81
2019-02-20T10:27:08.894Z,65.37
2019-02-20T10:28:08.948Z,65.99
2019-02-20T10:29:08.885Z,66.71
2019-02-20T10:30:08.930Z,65.68
2019-02-20T10:31:08.888Z,65.65
2019-02-20T10:32:08.843Z,65.07
2019-02-20T10:33:08.815Z,65.55
2019-02-20T10:34:08.882Z,65.14
2019-02-20T10:35:08.814Z,65.65
2019-02-20T10:36:08.836Z,65.68
2019-02-20T10:37:08.781Z,65.07
2019-02-20T10:38:08.770Z,65.37
2019-02-20T10:39:08.744Z,65.07
2019-02-20T10:40:08.774Z,65.14
2019-02-20T10:41:08.748Z,65.04
2019-02-20T10:42:08.862Z,65.07
2019-02-20T10:43:08.750Z,65.14
2019-02-20T10:44:08.757Z,65.34
2019-02-20T10:45:08.733Z,64.29
2019-02-20T10:46:09.166Z,64.29
2019-02-20T10:47:08.778Z,63.57
2019-02-20T10:48:09.399Z,63.34
2019-02-20T10:49:09.165Z,64.26
2019-02-20T10:50:09.138Z,63.44
2019-02-20T10:51:08.988Z,63.65
2019-02-20T10:52:08.714Z,63.13
2019-02-20T10:53:08.600Z,63.41
2019-02-20T10:54:08.577Z,62.80
2019-02-20T10:55:08.562Z,62.26
2019-02-20T10:56:09.665Z,61.57
2019-02-20T10:57:08.545Z,61.95
2019-02-20T10:58:08.531Z,61.65
2019-02-20T10:59:08.527Z,61.00
2019-02-20T11:00:08.525Z,61.69
2019-02-20T11:01:08.641Z,60.85
2019-02-20T11:02:08.907Z,59.72
2019-02-20T11:03:08.502Z,60.23
2019-02-20T11:04:08.566Z,59.92
2019-02-20T11:05:08.448Z,60.00
2019-02-20T11:06:08.452Z,59.46
2019-02-20T11:07:08.473Z,58.75
2019-02-20T11:08:08.423Z,58.72
2019-02-20T11:09:08.421Z,58.21
2019-02-20T11:10:08.396Z,57.90
2019-02-20T11:11:08.420Z,57.70
2019-02-20T11:12:08.435Z,57.78
2019-02-20T11:13:08.430Z,57.70
2019-02-20T11:14:08.356Z,57.57
2019-02-20T11:15:08.354Z,57.57
2019-02-20T11:16:08.358Z,57.29
2019-02-20T11:17:08.313Z,57.57
2019-02-20T11:18:08.318Z,56.78
2019-02-20T11:19:08.551Z,56.78
2019-02-20T11:20:08.553Z,57.60
2019-02-20T11:21:08.911Z,57.70
2019-02-20T11:22:09.365Z,57.47
2019-02-20T11:23:08.290Z,57.29
2019-02-20T11:24:08.237Z,57.32
2019-02-20T11:25:08.297Z,58.31
2019-02-20T11:26:08.217Z,57.29
2019-02-20T11:27:08.272Z,57.29
2019-02-20T11:28:08.259Z,56.58
2019-02-20T11:29:08.191Z,56.58
2019-02-20T11:30:08.183Z,56.24
2019-02-20T11:31:08.215Z,56.45
2019-02-20T11:32:08.154Z,56.85
2019-02-20T11:33:08.155Z,56.22
2019-02-20T11:34:08.260Z,56.29
2019-02-20T11:35:08.122Z,55.66
2019-02-20T11:36:08.162Z,54.64
2019-02-20T11:37:08.157Z,55.05
2019-02-20T11:38:08.115Z,54.74
2019-02-20T11:39:08.092Z,54.54
2019-02-20T11:40:08.080Z,54.54
2019-02-20T11:41:08.051Z,54.85
2019-02-20T11:42:08.060Z,54.64
2019-02-20T11:43:08.217Z,54.74
2019-02-20T11:44:08.013Z,54.33
2019-02-20T11:45:07.998Z,54.44
2019-02-20T11:46:08.011Z,54.77
2019-02-20T11:47:08.005Z,54.85
2019-02-20T11:48:07.981Z,55.05
2019-02-20T11:49:08.038Z,54.64
2019-02-20T11:50:07.999Z,54.94
2019-02-20T11:51:07.960Z,54.74
2019-02-20T11:52:07.958Z,54.44
2019-02-20T11:53:07.947Z,54.54
2019-02-20T11:54:07.933Z,54.46
2019-02-20T11:55:07.934Z,54.44
2019-02-20T11:56:07.925Z,54.57
2019-02-20T11:57:07.868Z,54.94
2019-02-20T11:58:07.862Z,54.94
2019-02-20T11:59:07.927Z,54.31
2019-02-20T12:00:07.830Z,54.74
2019-02-20T12:01:07.836Z,54.74
2019-02-20T12:02:07.828Z,54.85
2019-02-20T12:03:07.849Z,54.57
2019-02-20T12:04:07.795Z,55.41
2019-02-20T12:05:07.783Z,54.79
2019-02-20T12:06:07.797Z,55.41
2019-02-20T12:07:07.766Z,56.24
2019-02-20T12:08:07.748Z,56.42
2019-02-20T12:09:07.781Z,56.52
2019-02-20T12:10:07.722Z,55.58
2019-02-20T12:11:07.714Z,55.51
2019-02-20T12:12:09.403Z,55.18
2019-02-20T12:13:07.687Z,54.59
2019-02-20T12:14:07.728Z,54.97
2019-02-20T12:15:07.664Z,55.28
2019-02-20T12:16:07.659Z,54.74
2019-02-20T12:17:07.644Z,54.85
2019-02-20T12:18:07.633Z,54.51
2019-02-20T12:19:07.615Z,54.11
2019-02-20T12:20:07.662Z,53.19
2019-02-20T12:21:07.625Z,53.27
2019-02-20T12:22:07.586Z,53.47
2019-02-20T12:23:07.580Z,53.24
2019-02-20T12:24:07.588Z,53.04
2019-02-20T12:25:07.568Z,52.84
2019-02-20T12:26:07.602Z,52.12
2019-02-20T12:27:07.538Z,52.35
2019-02-20T12:28:07.568Z,52.84
2019-02-20T12:29:07.510Z,53.14
2019-02-20T12:30:07.499Z,52.53
2019-02-20T12:31:07.491Z,52.51
2019-02-20T12:32:07.491Z,52.61
2019-02-20T12:33:07.479Z,52.73
2019-02-20T12:34:07.560Z,52.71
2019-02-20T12:35:07.472Z,52.20
2019-02-20T12:36:07.428Z,51.70
2019-02-20T12:37:07.427Z,52.00
2019-02-20T12:38:07.405Z,51.70
2019-02-20T12:39:07.397Z,51.70
2019-02-20T12:40:07.432Z,51.21
2019-02-20T12:41:07.445Z,52.03
2019-02-20T12:42:07.424Z,51.72
2019-02-20T12:43:07.403Z,52.23
2019-02-20T12:44:07.346Z,52.56
2019-02-20T12:45:07.369Z,52.96
2019-02-20T12:46:07.327Z,53.17
2019-02-20T12:47:07.311Z,52.12
2019-02-20T12:48:07.333Z,50.37
2019-02-20T12:49:07.298Z,49.84
2019-02-20T12:50:07.288Z,49.74
2019-02-20T12:51:07.310Z,48.63
2019-02-20T12:52:07.255Z,48.22